Time;durP1;ratioP1;P1;durP2;ratioP2;P2;SDS_P1;SDS_P2;PMS_P1;PMS_P2;Temp;Humidity;BMP_temperature;BMP_pressure;BME280_temperature;BME280_humidity;BME280_pressure;Samples;Min_cycle;Max_cycle;Signal;HPM_P1;HPM_P2
2021/05/23 00:00:11;;;;;;;25.60;12.67;;;;;;;;;;4419894;32;20156;-68
2021/05/23 00:02:36;;;;;;;24.45;13.20;;;;;;;;;;4417984;32;20162;-68
2021/05/23 00:05:01;;;;;;;27.27;14.52;;;;;;;;;;4404530;32;20214;-67
2021/05/23 00:07:27;;;;;;;24.33;12.80;;;;;;;;;;4417874;32;20187;-68
2021/05/23 00:09:53;;;;;;;25.10;13.85;;;;;;;;;;4419734;32;20223;-68
2021/05/23 00:12:18;;;;;;;25.95;12.80;;;;;;;;;;4421814;32;20220;-67
2021/05/23 00:14:44;;;;;;;29.53;14.87;;;;;;;;;;4420578;32;20161;-68
2021/05/23 00:17:09;;;;;;;28.80;13.50;;;;;;;;;;4420733;32;20160;-67
2021/05/23 00:19:34;;;;;;;29.00;13.77;;;;;;;;;;4420440;32;20562;-67
2021/05/23 00:22:00;;;;;;;27.37;13.50;;;;;;;;;;4421113;32;20135;-68
2021/05/23 00:24:25;;;;;;;27.30;14.53;;;;;;;;;;4420489;32;20179;-68
2021/05/23 00:26:51;;;;;;;31.00;14.13;;;;;;;;;;4420223;32;20141;-68
2021/05/23 00:29:17;;;;;;;33.43;13.90;;;;;;;;;;4405823;32;20269;-68
2021/05/23 00:31:42;;;;;;;29.37;13.60;;;;;;;;;;4421390;32;20669;-68
2021/05/23 00:34:07;;;;;;;34.87;16.00;;;;;;;;;;4419050;32;20195;-67
2021/05/23 00:36:32;;;;;;;32.67;15.60;;;;;;;;;;4421373;32;20192;-67
2021/05/23 00:38:58;;;;;;;29.80;15.53;;;;;;;;;;4421410;32;20134;-66
2021/05/23 00:41:23;;;;;;;26.52;13.50;;;;;;;;;;4421902;32;20202;-68
2021/05/23 00:43:49;;;;;;;26.30;13.93;;;;;;;;;;4421804;32;20522;-68
2021/05/23 00:46:14;;;;;;;31.37;14.90;;;;;;;;;;4420178;32;20248;-67
2021/05/23 00:48:39;;;;;;;30.62;16.70;;;;;;;;;;4421934;32;20130;-68
2021/05/23 00:51:04;;;;;;;29.65;15.07;;;;;;;;;;4407068;32;20249;-68
2021/05/23 00:53:29;;;;;;;29.23;15.17;;;;;;;;;;4406314;32;20200;-68
2021/05/23 00:55:55;;;;;;;27.23;14.38;;;;;;;;;;4422080;32;20164;-67
2021/05/23 00:58:20;;;;;;;38.00;16.52;;;;;;;;;;4421441;32;20161;-69
2021/05/23 01:00:46;;;;;;;31.90;16.27;;;;;;;;;;4422103;32;20477;-68
2021/05/23 01:03:27;;;;;;;37.00;16.90;;;;;;;;;;4422723;32;20165;-68
2021/05/23 01:05:55;;;;;;;42.97;17.15;;;;;;;;;;4437186;32;20149;-68
2021/05/23 01:08:20;;;;;;;36.83;18.00;;;;;;;;;;4437520;32;20204;-68
2021/05/23 01:10:50;;;;;;;35.22;17.23;;;;;;;;;;4423290;32;20192;-68
2021/05/23 01:13:34;;;;;;;35.13;18.30;;;;;;;;;;4435029;32;20150;-68
2021/05/23 01:16:06;;;;;;;37.85;18.60;;;;;;;;;;4434642;32;20253;-67
2021/05/23 01:18:36;;;;;;;34.45;17.35;;;;;;;;;;4427844;32;20146;-67
2021/05/23 01:21:03;;;;;;;40.42;19.83;;;;;;;;;;4420650;32;20181;-67
2021/05/23 01:23:30;;;;;;;42.73;18.33;;;;;;;;;;4419023;32;20484;-69
2021/05/23 01:26:02;;;;;;;36.90;19.30;;;;;;;;;;4419688;32;20150;-67
2021/05/23 01:28:28;;;;;;;37.10;18.20;;;;;;;;;;4420726;32;20179;-67
2021/05/23 01:30:53;;;;;;;41.20;18.55;;;;;;;;;;4419487;32;20170;-68
2021/05/23 01:33:20;;;;;;;37.22;18.90;;;;;;;;;;4420974;32;20141;-68
2021/05/23 01:35:47;;;;;;;43.95;19.73;;;;;;;;;;4421728;32;20153;-68
2021/05/23 01:38:13;;;;;;;44.35;18.65;;;;;;;;;;4421246;32;20496;-67
2021/05/23 01:40:39;;;;;;;45.57;21.67;;;;;;;;;;4419761;32;20207;-68
2021/05/23 01:43:05;;;;;;;44.75;20.08;;;;;;;;;;4407659;32;20578;-68
2021/05/23 01:45:30;;;;;;;43.72;20.27;;;;;;;;;;4419140;32;20142;-66
2021/05/23 01:47:56;;;;;;;46.53;21.30;;;;;;;;;;4420643;32;20534;-68
2021/05/23 01:50:23;;;;;;;39.67;18.87;;;;;;;;;;4420647;32;20154;-68
2021/05/23 01:52:50;;;;;;;45.03;20.73;;;;;;;;;;4420301;32;20200;-67
2021/05/23 01:55:16;;;;;;;50.40;21.67;;;;;;;;;;4420522;32;20138;-67
2021/05/23 01:57:42;;;;;;;52.17;22.00;;;;;;;;;;4418966;32;20191;-67
2021/05/23 02:00:07;;;;;;;50.22;21.05;;;;;;;;;;4424004;32;20154;-67
2021/05/23 02:02:32;;;;;;;51.08;21.42;;;;;;;;;;4434293;32;20177;-67
2021/05/23 02:04:57;;;;;;;52.08;22.65;;;;;;;;;;4436423;32;20145;-67
2021/05/23 02:07:23;;;;;;;53.33;22.48;;;;;;;;;;4436541;32;20494;-68
2021/05/23 02:09:48;;;;;;;47.08;21.55;;;;;;;;;;4434730;32;20569;-68
2021/05/23 02:12:13;;;;;;;60.12;23.83;;;;;;;;;;4434019;32;20137;-67
2021/05/23 02:14:38;;;;;;;54.20;24.77;;;;;;;;;;4435961;32;20210;-68
2021/05/23 02:17:03;;;;;;;51.60;23.77;;;;;;;;;;4436270;32;20240;-71
2021/05/23 02:19:28;;;;;;;56.60;24.33;;;;;;;;;;4434793;32;20182;-68
2021/05/23 02:21:54;;;;;;;53.43;23.27;;;;;;;;;;4419773;32;20176;-67
2021/05/23 02:24:19;;;;;;;60.37;25.43;;;;;;;;;;4420322;32;20590;-67
2021/05/23 02:26:44;;;;;;;58.83;25.97;;;;;;;;;;4433408;32;20132;-71
2021/05/23 02:29:10;;;;;;;58.73;26.40;;;;;;;;;;4433065;32;20157;-67
2021/05/23 02:31:35;;;;;;;60.28;26.73;;;;;;;;;;4407808;32;20230;-67
2021/05/23 02:34:01;;;;;;;62.70;26.60;;;;;;;;;;4418667;32;20204;-67
2021/05/23 02:36:26;;;;;;;63.73;28.70;;;;;;;;;;4418768;32;20134;-67
2021/05/23 02:38:51;;;;;;;59.13;26.20;;;;;;;;;;4418534;32;20189;-67
2021/05/23 02:41:16;;;;;;;55.78;26.90;;;;;;;;;;4419415;32;20165;-67
2021/05/23 02:43:41;;;;;;;58.23;27.43;;;;;;;;;;4417183;32;20347;-67
2021/05/23 02:46:06;;;;;;;56.22;27.35;;;;;;;;;;4417746;32;20145;-67
2021/05/23 02:48:32;;;;;;;54.53;24.83;;;;;;;;;;4419185;32;20417;-68
2021/05/23 02:51:01;;;;;;;64.70;28.87;;;;;;;;;;4403182;32;20662;-68
2021/05/23 02:53:26;;;;;;;62.03;27.37;;;;;;;;;;4418303;32;20134;-66
2021/05/23 02:55:53;;;;;;;60.53;25.90;;;;;;;;;;4417813;32;20161;-68
2021/05/23 02:58:18;;;;;;;65.50;26.95;;;;;;;;;;4418090;32;20258;-67
2021/05/23 03:00:44;;;;;;;72.43;29.30;;;;;;;;;;4422620;32;20565;-67
2021/05/23 03:03:10;;;;;;;62.07;28.90;;;;;;;;;;4434041;32;20169;-68
2021/05/23 03:05:35;;;;;;;59.30;26.93;;;;;;;;;;4432160;32;20307;-68
2021/05/23 03:08:01;;;;;;;57.60;27.77;;;;;;;;;;4434466;32;20157;-67
2021/05/23 03:10:27;;;;;;;65.82;27.85;;;;;;;;;;4432591;32;20442;-67
2021/05/23 03:12:52;;;;;;;66.87;27.52;;;;;;;;;;4434389;32;20219;-66
2021/05/23 03:15:19;;;;;;;60.43;26.67;;;;;;;;;;4434041;32;20561;-67
2021/05/23 03:17:44;;;;;;;64.33;27.87;;;;;;;;;;4432615;32;20212;-67
2021/05/23 03:20:10;;;;;;;71.30;27.47;;;;;;;;;;4421048;32;20192;-68
2021/05/23 03:22:36;;;;;;;60.63;26.03;;;;;;;;;;4434352;32;20134;-67
2021/05/23 03:25:03;;;;;;;28.02;14.63;;;;;;;;;;4433699;32;20153;-67
2021/05/23 03:27:28;;;;;;;18.02;9.70;;;;;;;;;;4434724;32;20145;-66
2021/05/23 03:29:54;;;;;;;17.65;8.32;;;;;;;;;;4411263;32;20173;-67
2021/05/23 03:32:19;;;;;;;7.30;4.20;;;;;;;;;;4403029;32;20265;-67
2021/05/23 03:34:44;;;;;;;4.95;3.87;;;;;;;;;;4418882;32;20237;-68
2021/05/23 03:37:09;;;;;;;7.20;3.67;;;;;;;;;;4416759;32;20296;-68
2021/05/23 03:39:34;;;;;;;6.17;3.63;;;;;;;;;;4424600;32;20153;-67
2021/05/23 03:41:59;;;;;;;4.57;3.70;;;;;;;;;;4432327;32;20232;-67
2021/05/23 03:44:25;;;;;;;6.60;4.93;;;;;;;;;;4432951;32;20261;-68
2021/05/23 03:46:50;;;;;;;7.97;5.57;;;;;;;;;;4436810;32;20237;-68
2021/05/23 03:49:15;;;;;;;8.77;6.37;;;;;;;;;;4421045;32;20165;-67
2021/05/23 03:51:40;;;;;;;11.83;7.73;;;;;;;;;;4423052;32;20173;-68
2021/05/23 03:54:07;;;;;;;11.77;7.60;;;;;;;;;;4434493;32;20157;-67
2021/05/23 03:56:32;;;;;;;12.80;9.07;;;;;;;;;;4418258;32;20329;-68
2021/05/23 03:58:57;;;;;;;11.83;8.70;;;;;;;;;;4435199;32;20506;-68
2021/05/23 04:01:22;;;;;;;12.82;9.40;;;;;;;;;;4435825;32;20176;-67
2021/05/23 04:03:47;;;;;;;12.30;9.00;;;;;;;;;;4436387;32;20230;-68
2021/05/23 04:06:13;;;;;;;13.57;8.97;;;;;;;;;;4436953;32;20725;-68
2021/05/23 04:08:38;;;;;;;10.25;7.40;;;;;;;;;;4435634;32;20133;-67
2021/05/23 04:11:13;;;;;;;10.30;6.95;;;;;;;;;;4436106;32;20161;-66
2021/05/23 04:13:40;;;;;;;11.15;7.20;;;;;;;;;;4436397;32;20180;-67
2021/05/23 04:16:06;;;;;;;11.23;7.57;;;;;;;;;;4422171;32;20173;-68
2021/05/23 04:18:31;;;;;;;11.85;7.85;;;;;;;;;;4434495;32;20125;-68
2021/05/23 04:20:56;;;;;;;9.35;6.50;;;;;;;;;;4435465;32;20126;-67
2021/05/23 04:23:23;;;;;;;12.00;7.90;;;;;;;;;;4435766;32;20294;-67
2021/05/23 04:25:49;;;;;;;10.15;7.45;;;;;;;;;;4421013;32;20331;-67
2021/05/23 04:28:14;;;;;;;9.80;7.32;;;;;;;;;;4420656;32;20306;-65
2021/05/23 04:30:39;;;;;;;12.05;7.10;;;;;;;;;;4436413;32;20625;-67
2021/05/23 04:33:04;;;;;;;11.48;7.57;;;;;;;;;;4435615;32;20218;-67
2021/05/23 04:35:29;;;;;;;13.63;9.33;;;;;;;;;;4435012;32;20130;-67
2021/05/23 04:37:57;;;;;;;17.02;10.02;;;;;;;;;;4435551;32;20224;-67
2021/05/23 04:40:22;;;;;;;13.40;9.07;;;;;;;;;;4420570;32;20559;-67
2021/05/23 04:42:47;;;;;;;12.60;9.10;;;;;;;;;;4422307;32;20162;-68
2021/05/23 04:45:15;;;;;;;17.42;10.43;;;;;;;;;;4435971;32;20212;-67
2021/05/23 04:47:40;;;;;;;17.50;10.73;;;;;;;;;;4422253;32;20593;-67
2021/05/23 04:50:06;;;;;;;22.00;12.52;;;;;;;;;;4422264;32;20166;-67
2021/05/23 04:52:31;;;;;;;28.12;13.77;;;;;;;;;;4434353;32;20525;-67
2021/05/23 04:54:57;;;;;;;34.90;17.73;;;;;;;;;;4434631;32;20161;-68
2021/05/23 04:57:22;;;;;;;41.53;23.10;;;;;;;;;;4433326;32;20311;-67
2021/05/23 04:59:50;;;;;;;43.80;21.93;;;;;;;;;;4434221;32;20146;-68
2021/05/23 05:02:15;;;;;;;50.38;24.23;;;;;;;;;;4435543;32;20172;-68
2021/05/23 05:04:40;;;;;;;43.17;23.85;;;;;;;;;;4434546;32;20134;-68
2021/05/23 05:07:06;;;;;;;46.37;22.30;;;;;;;;;;4434580;32;20525;-67
2021/05/23 05:09:31;;;;;;;45.12;23.23;;;;;;;;;;4420411;32;20265;-67
2021/05/23 05:11:56;;;;;;;44.33;21.93;;;;;;;;;;4420909;32;20169;-70
2021/05/23 05:14:21;;;;;;;46.05;19.42;;;;;;;;;;4436421;32;20172;-67
2021/05/23 05:16:47;;;;;;;40.80;19.50;;;;;;;;;;4435125;32;20169;-67
2021/05/23 05:19:12;;;;;;;34.45;18.83;;;;;;;;;;4436378;32;20309;-67
2021/05/23 05:21:37;;;;;;;34.63;15.82;;;;;;;;;;4420240;32;20165;-68
2021/05/23 05:24:03;;;;;;;29.55;14.27;;;;;;;;;;4434697;32;20232;-67
2021/05/23 05:26:28;;;;;;;31.33;15.00;;;;;;;;;;4434271;32;20141;-67
2021/05/23 05:28:53;;;;;;;35.42;15.82;;;;;;;;;;4419592;32;20484;-67
2021/05/23 05:31:18;;;;;;;34.00;15.93;;;;;;;;;;4433775;32;20137;-67
2021/05/23 05:33:43;;;;;;;26.60;13.10;;;;;;;;;;4435993;32;20157;-67
2021/05/23 05:36:09;;;;;;;36.33;15.18;;;;;;;;;;4434814;32;20171;-67
2021/05/23 05:38:34;;;;;;;36.05;15.70;;;;;;;;;;4427375;32;20562;-68
2021/05/23 05:41:00;;;;;;;23.83;12.68;;;;;;;;;;4419094;32;20156;-67
2021/05/23 05:43:25;;;;;;;17.23;9.40;;;;;;;;;;4405322;32;20169;-68
2021/05/23 05:45:51;;;;;;;13.50;9.23;;;;;;;;;;4405260;32;20169;-68
2021/05/23 05:48:16;;;;;;;23.70;10.52;;;;;;;;;;4420197;32;20540;-68
2021/05/23 05:50:41;;;;;;;24.20;10.27;;;;;;;;;;4418882;32;20172;-68
2021/05/23 05:53:06;;;;;;;28.42;11.57;;;;;;;;;;4419858;32;20141;-68
2021/05/23 05:55:31;;;;;;;27.65;11.90;;;;;;;;;;4420137;32;20137;-68
2021/05/23 05:57:57;;;;;;;21.85;9.57;;;;;;;;;;4418435;32;20284;-67
2021/05/23 06:00:22;;;;;;;23.45;9.20;;;;;;;;;;4420328;32;20149;-68
2021/05/23 06:02:47;;;;;;;25.40;9.10;;;;;;;;;;4420299;32;20269;-68
2021/05/23 06:05:12;;;;;;;15.95;8.23;;;;;;;;;;4419796;32;20192;-67
2021/05/23 06:07:38;;;;;;;20.17;6.90;;;;;;;;;;4405245;32;20158;-67
2021/05/23 06:10:03;;;;;;;20.02;7.30;;;;;;;;;;4420033;32;20213;-67
2021/05/23 06:12:29;;;;;;;18.87;6.35;;;;;;;;;;4418554;32;20191;-68
2021/05/23 06:14:54;;;;;;;20.27;7.28;;;;;;;;;;4406250;32;20188;-68
2021/05/23 06:17:19;;;;;;;13.25;5.30;;;;;;;;;;4419071;32;20469;-68
2021/05/23 06:19:44;;;;;;;18.75;5.87;;;;;;;;;;4418768;32;20122;-68
2021/05/23 06:22:09;;;;;;;14.27;5.32;;;;;;;;;;4406153;32;20184;-68
2021/05/23 06:24:34;;;;;;;14.87;5.87;;;;;;;;;;4417593;32;20264;-68
2021/05/23 06:27:00;;;;;;;18.35;5.75;;;;;;;;;;4418629;32;20567;-68
2021/05/23 06:29:25;;;;;;;16.48;5.65;;;;;;;;;;4403533;32;20237;-68
2021/05/23 06:31:50;;;;;;;13.60;6.00;;;;;;;;;;4416687;32;20138;-67
2021/05/23 06:34:15;;;;;;;15.45;6.82;;;;;;;;;;4417568;32;20133;-68
2021/05/23 06:36:40;;;;;;;12.57;4.60;;;;;;;;;;4418594;32;20177;-68
2021/05/23 06:39:06;;;;;;;13.48;4.95;;;;;;;;;;4419157;32;20160;-68
2021/05/23 06:41:32;;;;;;;16.35;4.72;;;;;;;;;;4417813;32;20126;-68
2021/05/23 06:43:57;;;;;;;15.73;4.80;;;;;;;;;;4405773;32;20226;-68
2021/05/23 06:46:22;;;;;;;12.90;4.37;;;;;;;;;;4418482;32;20177;-66
2021/05/23 06:48:47;;;;;;;13.60;4.00;;;;;;;;;;4430063;32;20133;-69
2021/05/23 06:51:13;;;;;;;15.10;3.62;;;;;;;;;;4417484;32;20344;-68
2021/05/23 06:53:39;;;;;;;14.25;4.00;;;;;;;;;;4407205;32;20196;-68
2021/05/23 06:56:04;;;;;;;10.55;4.15;;;;;;;;;;4419566;32;20138;-67
2021/05/23 06:58:29;;;;;;;8.48;3.67;;;;;;;;;;4417320;32;20277;-67
2021/05/23 07:00:54;;;;;;;10.60;4.32;;;;;;;;;;4404077;32;20173;-66
2021/05/23 07:03:20;;;;;;;13.52;4.35;;;;;;;;;;4419246;32;20637;-66
2021/05/23 07:05:45;;;;;;;11.68;4.43;;;;;;;;;;4417539;32;20130;-66
2021/05/23 07:08:10;;;;;;;15.75;4.03;;;;;;;;;;4421768;32;20265;-67
2021/05/23 07:10:35;;;;;;;8.70;3.33;;;;;;;;;;4425058;32;20165;-67
2021/05/23 07:13:01;;;;;;;13.07;4.30;;;;;;;;;;4428308;32;20204;-67
2021/05/23 07:15:26;;;;;;;12.75;4.40;;;;;;;;;;4417464;32;20172;-68
2021/05/23 07:17:53;;;;;;;10.77;3.60;;;;;;;;;;4434057;32;20164;-67
2021/05/23 07:20:18;;;;;;;13.88;3.92;;;;;;;;;;4411467;32;20158;-68
2021/05/23 07:22:43;;;;;;;12.15;4.10;;;;;;;;;;4418258;32;20134;-66
2021/05/23 07:25:09;;;;;;;11.68;4.35;;;;;;;;;;4418223;32;20131;-68
2021/05/23 07:27:34;;;;;;;11.38;4.78;;;;;;;;;;4417165;32;20134;-68
2021/05/23 07:29:59;;;;;;;14.33;5.27;;;;;;;;;;4425888;32;20150;-67
2021/05/23 07:32:24;;;;;;;11.65;4.32;;;;;;;;;;4424514;32;20245;-66
2021/05/23 07:34:50;;;;;;;16.48;5.05;;;;;;;;;;4421555;32;20633;-66
2021/05/23 07:37:15;;;;;;;11.52;4.05;;;;;;;;;;4404087;32;20282;-67
2021/05/23 07:39:44;;;;;;;10.80;4.25;;;;;;;;;;4431871;32;20150;-67
2021/05/23 07:42:10;;;;;;;10.52;3.72;;;;;;;;;;4431688;32;20189;-67
2021/05/23 07:44:35;;;;;;;8.85;3.22;;;;;;;;;;4417320;32;20182;-67
2021/05/23 07:47:00;;;;;;;7.57;2.70;;;;;;;;;;4433226;32;20160;-67
2021/05/23 07:49:25;;;;;;;5.75;2.37;;;;;;;;;;4433187;32;20255;-68
2021/05/23 07:51:50;;;;;;;6.28;2.50;;;;;;;;;;4433406;32;20216;-68
2021/05/23 07:54:15;;;;;;;5.15;2.67;;;;;;;;;;4421097;32;20161;-68
2021/05/23 07:56:45;;;;;;;7.45;2.17;;;;;;;;;;4417670;32;20153;-68
2021/05/23 07:59:10;;;;;;;7.10;2.12;;;;;;;;;;4417856;32;20161;-68
2021/05/23 08:01:35;;;;;;;6.95;2.45;;;;;;;;;;4407255;32;20192;-68
2021/05/23 08:04:00;;;;;;;3.20;1.50;;;;;;;;;;4431945;32;20292;-67
2021/05/23 08:06:26;;;;;;;2.97;1.60;;;;;;;;;;4432208;32;20129;-67
2021/05/23 08:08:51;;;;;;;3.75;1.35;;;;;;;;;;4431242;32;20250;-67
2021/05/23 08:11:17;;;;;;;3.30;1.40;;;;;;;;;;4416227;32;20557;-67
2021/05/23 08:13:42;;;;;;;4.57;1.50;;;;;;;;;;4435656;32;20248;-67
2021/05/23 08:16:10;;;;;;;4.07;1.58;;;;;;;;;;4434141;32;20137;-68
2021/05/23 08:18:36;;;;;;;3.80;2.15;;;;;;;;;;4432870;32;20305;-67
2021/05/23 08:21:02;;;;;;;10.25;2.20;;;;;;;;;;4432631;32;20133;-67
2021/05/23 08:23:29;;;;;;;5.97;1.60;;;;;;;;;;4433458;32;20145;-68
2021/05/23 08:25:55;;;;;;;6.65;1.62;;;;;;;;;;4433105;32;20138;-67
2021/05/23 08:28:21;;;;;;;5.22;1.70;;;;;;;;;;4420296;32;20382;-68
2021/05/23 08:30:46;;;;;;;4.12;1.60;;;;;;;;;;4447477;32;20198;-68
2021/05/23 08:33:12;;;;;;;11.65;2.10;;;;;;;;;;4415470;32;20157;-68
2021/05/23 08:35:37;;;;;;;5.93;1.75;;;;;;;;;;4433065;32;20169;-67
2021/05/23 08:38:02;;;;;;;6.00;1.95;;;;;;;;;;4425064;32;20552;-66
2021/05/23 08:40:28;;;;;;;11.68;1.90;;;;;;;;;;4415444;32;20572;-67
2021/05/23 08:42:53;;;;;;;5.97;1.83;;;;;;;;;;4429757;32;20600;-67
2021/05/23 08:45:18;;;;;;;8.35;2.00;;;;;;;;;;4416751;32;20275;-68
2021/05/23 08:47:47;;;;;;;5.15;1.58;;;;;;;;;;4440088;32;20175;-67
2021/05/23 08:50:15;;;;;;;5.22;1.70;;;;;;;;;;4435272;32;20212;-67
2021/05/23 08:52:40;;;;;;;8.95;2.08;;;;;;;;;;4431403;32;20143;-68
2021/05/23 08:55:06;;;;;;;4.85;1.60;;;;;;;;;;4404122;32;20188;-68
2021/05/23 08:57:31;;;;;;;7.90;1.90;;;;;;;;;;4426659;32;20153;-67
2021/05/23 08:59:56;;;;;;;8.15;1.75;;;;;;;;;;4430591;32;20179;-68
2021/05/23 09:02:21;;;;;;;6.43;1.67;;;;;;;;;;4425669;32;20555;-68
2021/05/23 09:04:51;;;;;;;6.55;1.60;;;;;;;;;;4418841;32;20290;-69
2021/05/23 09:07:17;;;;;;;7.70;1.87;;;;;;;;;;4418323;32;20230;-67
2021/05/23 09:09:43;;;;;;;9.45;2.37;;;;;;;;;;4417845;32;20134;-67
2021/05/23 09:12:10;;;;;;;10.15;2.90;;;;;;;;;;4405753;32;20509;-67
2021/05/23 09:14:38;;;;;;;7.65;2.37;;;;;;;;;;4419091;32;20130;-67
2021/05/23 09:17:05;;;;;;;9.98;2.28;;;;;;;;;;4418491;32;20260;-68
2021/05/23 09:19:42;;;;;;;9.00;1.77;;;;;;;;;;4421347;32;20156;-68
2021/05/23 09:22:08;;;;;;;9.48;2.25;;;;;;;;;;4420085;32;20180;-67
2021/05/23 09:24:34;;;;;;;6.75;2.58;;;;;;;;;;4419938;32;20566;-67
2021/05/23 09:27:04;;;;;;;6.03;1.83;;;;;;;;;;4418052;32;20129;-67
2021/05/23 09:29:29;;;;;;;8.02;2.15;;;;;;;;;;4419558;32;20591;-68
2021/05/23 09:32:03;;;;;;;10.57;2.25;;;;;;;;;;4405644;32;20165;-68
2021/05/23 09:34:30;;;;;;;9.18;2.60;;;;;;;;;;4418635;32;20129;-69
2021/05/23 09:36:55;;;;;;;9.85;2.53;;;;;;;;;;4419760;32;20134;-68
2021/05/23 09:39:20;;;;;;;6.45;1.95;;;;;;;;;;4432066;32;20163;-68
2021/05/23 09:41:46;;;;;;;5.87;2.33;;;;;;;;;;4433377;32;20161;-67
2021/05/23 09:44:21;;;;;;;7.10;2.08;;;;;;;;;;4419956;32;20157;-67
2021/05/23 09:46:50;;;;;;;5.00;2.00;;;;;;;;;;4422627;32;20538;-67
2021/05/23 09:49:15;;;;;;;7.25;2.05;;;;;;;;;;4419151;32;20224;-68
2021/05/23 09:51:48;;;;;;;5.25;1.75;;;;;;;;;;4426478;32;20153;-68
2021/05/23 09:54:13;;;;;;;8.13;1.70;;;;;;;;;;4417541;32;20290;-67
2021/05/23 09:56:38;;;;;;;6.12;2.58;;;;;;;;;;4418739;32;20569;-67
2021/05/23 09:59:03;;;;;;;5.37;1.60;;;;;;;;;;4418789;32;20273;-67
2021/05/23 10:01:31;;;;;;;5.97;1.58;;;;;;;;;;4433153;32;20289;-68
2021/05/23 10:03:57;;;;;;;3.85;1.45;;;;;;;;;;4420193;32;20232;-68
2021/05/23 10:06:30;;;;;;;8.15;1.70;;;;;;;;;;4432574;32;20134;-67
2021/05/23 10:08:55;;;;;;;4.37;1.55;;;;;;;;;;4432730;32;20149;-67
2021/05/23 10:11:20;;;;;;;4.35;1.30;;;;;;;;;;4432515;32;20325;-68
2021/05/23 10:13:46;;;;;;;5.87;1.80;;;;;;;;;;4433529;32;20573;-69
2021/05/23 10:16:12;;;;;;;4.93;1.20;;;;;;;;;;4432374;32;20200;-67
2021/05/23 10:18:37;;;;;;;6.03;1.20;;;;;;;;;;4434413;32;20557;-67
2021/05/23 10:21:02;;;;;;;2.65;1.20;;;;;;;;;;4430449;32;20142;-68
2021/05/23 10:23:31;;;;;;;4.40;1.30;;;;;;;;;;4425162;32;20251;-68
2021/05/23 10:25:57;;;;;;;4.07;1.05;;;;;;;;;;4433525;32;20145;-68
2021/05/23 10:28:23;;;;;;;2.20;0.73;;;;;;;;;;4423806;32;20188;-68
2021/05/23 10:30:55;;;;;;;4.68;1.20;;;;;;;;;;4417583;32;20146;-67
2021/05/23 10:33:21;;;;;;;3.25;1.27;;;;;;;;;;4404231;32;20219;-67
2021/05/23 10:35:47;;;;;;;3.55;1.17;;;;;;;;;;4417495;32;20213;-66
2021/05/23 10:38:14;;;;;;;4.10;1.33;;;;;;;;;;4403010;32;20161;-67
2021/05/23 10:40:50;;;;;;;4.03;0.93;;;;;;;;;;4425129;32;20176;-66
2021/05/23 10:43:20;;;;;;;3.65;1.10;;;;;;;;;;4433426;32;20133;-66
2021/05/23 10:45:45;;;;;;;2.30;1.20;;;;;;;;;;4424947;32;20158;-67
2021/05/23 10:48:11;;;;;;;3.25;0.85;;;;;;;;;;4417788;32;20133;-68
2021/05/23 10:50:37;;;;;;;5.07;1.10;;;;;;;;;;4405375;32;20237;-68
2021/05/23 10:53:05;;;;;;;3.08;1.00;;;;;;;;;;4417549;32;20134;-68
2021/05/23 10:55:31;;;;;;;3.40;1.20;;;;;;;;;;4425795;32;20157;-68
2021/05/23 10:57:57;;;;;;;2.62;1.10;;;;;;;;;;4434280;32;20561;-67
2021/05/23 11:00:22;;;;;;;5.03;1.00;;;;;;;;;;4421915;32;20135;-67
2021/05/23 11:02:48;;;;;;;1.35;0.80;;;;;;;;;;4403642;32;20597;-67
2021/05/23 11:05:15;;;;;;;7.45;1.20;;;;;;;;;;4418772;32;20232;-68
2021/05/23 11:07:51;;;;;;;3.97;0.90;;;;;;;;;;4419781;32;20542;-67
2021/05/23 11:10:18;;;;;;;3.80;1.23;;;;;;;;;;4420453;32;20535;-67
2021/05/23 11:12:49;;;;;;;3.12;0.90;;;;;;;;;;4406905;32;20166;-67
2021/05/23 11:15:14;;;;;;;4.85;1.60;;;;;;;;;;4411716;32;20219;-67
2021/05/23 11:17:39;;;;;;;7.47;1.87;;;;;;;;;;4435837;32;20200;-67
2021/05/23 11:20:24;;;;;;;2.17;1.30;;;;;;;;;;4434354;32;20138;-67
2021/05/23 11:22:56;;;;;;;4.30;1.58;;;;;;;;;;4434965;32;20273;-68
2021/05/23 11:25:22;;;;;;;2.62;1.20;;;;;;;;;;4432790;32;20292;-68
2021/05/23 11:27:56;;;;;;;4.35;1.05;;;;;;;;;;4421208;32;20160;-68
2021/05/23 11:30:21;;;;;;;4.45;1.00;;;;;;;;;;4425966;32;20145;-68
2021/05/23 11:32:46;;;;;;;4.70;1.30;;;;;;;;;;4419199;32;20447;-67
2021/05/23 11:35:21;;;;;;;5.35;1.33;;;;;;;;;;4428964;32;20220;-67
2021/05/23 11:37:51;;;;;;;5.32;1.10;;;;;;;;;;4435550;32;20664;-67
2021/05/23 11:40:16;;;;;;;2.75;1.05;;;;;;;;;;4435005;32;20515;-67
2021/05/23 11:42:41;;;;;;;4.95;1.15;;;;;;;;;;4433189;32;20138;-68
2021/05/23 11:45:16;;;;;;;3.85;1.10;;;;;;;;;;4434033;32;20169;-67
2021/05/23 11:47:45;;;;;;;3.60;1.20;;;;;;;;;;4433333;32;20557;-68
2021/05/23 11:50:24;;;;;;;3.20;1.23;;;;;;;;;;4427450;32;20567;-68
2021/05/23 11:52:54;;;;;;;3.22;1.30;;;;;;;;;;4418317;32;20134;-68
2021/05/23 11:55:20;;;;;;;3.50;1.42;;;;;;;;;;4441806;32;20149;-68
2021/05/23 11:57:49;;;;;;;5.78;1.15;;;;;;;;;;4419164;32;20509;-68
2021/05/23 12:00:18;;;;;;;4.10;1.45;;;;;;;;;;4423170;32;20555;-68
2021/05/23 12:02:54;;;;;;;6.87;1.48;;;;;;;;;;4419599;32;20197;-67
2021/05/23 12:05:20;;;;;;;4.30;1.40;;;;;;;;;;4420590;32;20138;-69
2021/05/23 12:07:46;;;;;;;6.18;1.80;;;;;;;;;;4422087;32;20138;-67
2021/05/23 12:10:11;;;;;;;4.78;1.60;;;;;;;;;;4426712;32;20172;-68
2021/05/23 12:12:36;;;;;;;4.22;1.20;;;;;;;;;;4437273;32;20249;-67
2021/05/23 12:15:01;;;;;;;4.40;1.33;;;;;;;;;;4431186;32;20256;-68
2021/05/23 12:17:26;;;;;;;3.65;1.40;;;;;;;;;;4422979;32;20486;-68
2021/05/23 12:19:54;;;;;;;6.90;1.37;;;;;;;;;;4436521;32;20168;-68
2021/05/23 12:22:19;;;;;;;3.60;1.00;;;;;;;;;;4435468;32;20137;-67
2021/05/23 12:24:45;;;;;;;4.75;1.40;;;;;;;;;;4421691;32;20602;-68
2021/05/23 12:27:16;;;;;;;4.43;1.50;;;;;;;;;;4436719;32;20197;-68
2021/05/23 12:29:41;;;;;;;5.47;1.30;;;;;;;;;;4434871;32;20191;-68
2021/05/23 12:32:06;;;;;;;5.72;1.27;;;;;;;;;;4436894;32;20509;-67
2021/05/23 12:34:32;;;;;;;3.60;1.20;;;;;;;;;;4436242;32;20157;-68
2021/05/23 12:37:00;;;;;;;4.00;1.40;;;;;;;;;;4436417;32;20142;-67
2021/05/23 12:39:25;;;;;;;4.62;1.33;;;;;;;;;;4429653;32;20222;-68
2021/05/23 12:41:51;;;;;;;4.55;1.33;;;;;;;;;;4420453;32;20241;-68
2021/05/23 12:44:17;;;;;;;4.15;1.85;;;;;;;;;;4419923;32;20669;-68
2021/05/23 12:46:43;;;;;;;4.85;1.70;;;;;;;;;;4411214;32;20188;-67
2021/05/23 12:49:29;;;;;;;3.92;1.50;;;;;;;;;;4421736;32;20153;-67
2021/05/23 12:51:54;;;;;;;3.72;1.30;;;;;;;;;;4423225;32;20209;-68
2021/05/23 12:54:23;;;;;;;5.90;1.48;;;;;;;;;;4433040;32;20248;-68
2021/05/23 12:56:48;;;;;;;4.78;1.30;;;;;;;;;;4433434;32;20193;-66
2021/05/23 12:59:19;;;;;;;3.75;1.30;;;;;;;;;;4434500;32;20602;-68
2021/05/23 13:01:45;;;;;;;4.37;1.25;;;;;;;;;;4422352;32;20315;-69
2021/05/23 13:04:23;;;;;;;4.78;1.70;;;;;;;;;;4420032;32;20226;-69
2021/05/23 13:06:55;;;;;;;5.60;1.20;;;;;;;;;;4433324;32;20213;-68
2021/05/23 13:09:22;;;;;;;3.05;1.20;;;;;;;;;;4429738;32;20173;-68
2021/05/23 13:11:57;;;;;;;5.40;1.50;;;;;;;;;;4417582;32;20158;-68
2021/05/23 13:14:23;;;;;;;3.25;1.33;;;;;;;;;;4423958;32;20149;-67
2021/05/23 13:16:53;;;;;;;4.45;1.75;;;;;;;;;;4433894;32;20130;-67
2021/05/23 13:19:23;;;;;;;3.80;1.45;;;;;;;;;;4435380;32;20195;-68
2021/05/23 13:21:49;;;;;;;3.70;1.50;;;;;;;;;;4433382;32;20195;-68
2021/05/23 13:24:21;;;;;;;4.25;1.42;;;;;;;;;;4420964;32;20165;-67
2021/05/23 13:26:55;;;;;;;4.40;1.50;;;;;;;;;;4419470;32;20157;-68
2021/05/23 13:29:20;;;;;;;7.43;1.60;;;;;;;;;;4421461;32;20129;-67
2021/05/23 13:31:45;;;;;;;3.95;1.30;;;;;;;;;;4421136;32;20161;-69
2021/05/23 13:34:10;;;;;;;4.20;1.37;;;;;;;;;;4431479;32;20145;-69
2021/05/23 13:36:36;;;;;;;4.32;1.60;;;;;;;;;;4433169;32;20221;-68
2021/05/23 13:39:01;;;;;;;3.78;1.75;;;;;;;;;;4433440;32;20176;-68
2021/05/23 13:41:28;;;;;;;6.35;1.55;;;;;;;;;;4419591;32;20157;-67
2021/05/23 13:43:53;;;;;;;5.68;1.40;;;;;;;;;;4434155;32;20468;-68
2021/05/23 13:46:18;;;;;;;5.10;1.75;;;;;;;;;;4418795;32;20221;-69
2021/05/23 13:48:43;;;;;;;7.70;2.00;;;;;;;;;;4435279;32;20189;-67
2021/05/23 13:51:11;;;;;;;3.78;1.45;;;;;;;;;;4420844;32;20592;-67
2021/05/23 13:53:36;;;;;;;4.35;1.35;;;;;;;;;;4435104;32;20301;-67
2021/05/23 13:56:01;;;;;;;4.97;1.62;;;;;;;;;;4434582;32;20142;-68
2021/05/23 13:58:27;;;;;;;3.85;1.60;;;;;;;;;;4419564;32;20226;-67
2021/05/23 14:00:52;;;;;;;4.80;1.75;;;;;;;;;;4434589;32;20248;-68
2021/05/23 14:03:21;;;;;;;6.03;1.55;;;;;;;;;;4419892;32;20464;-68
2021/05/23 14:05:47;;;;;;;2.90;1.40;;;;;;;;;;4432474;32;20566;-68
2021/05/23 14:08:13;;;;;;;6.30;1.70;;;;;;;;;;4428908;32;20177;-67
2021/05/23 14:10:38;;;;;;;3.28;1.45;;;;;;;;;;4420218;32;20130;-69
2021/05/23 14:13:04;;;;;;;3.92;1.70;;;;;;;;;;4419630;32;20138;-67
2021/05/23 14:15:29;;;;;;;3.12;1.20;;;;;;;;;;4405069;32;20591;-68
2021/05/23 14:17:54;;;;;;;3.10;1.60;;;;;;;;;;4418945;32;20297;-68
2021/05/23 14:20:23;;;;;;;6.12;1.77;;;;;;;;;;4432171;32;20180;-69
2021/05/23 14:22:49;;;;;;;5.30;1.80;;;;;;;;;;4420394;32;20301;-68
2021/05/23 14:25:14;;;;;;;4.72;1.50;;;;;;;;;;4418072;32;20168;-67